createdAt,value
2022-08-11T00:02:01.334Z,1.70
2022-08-11T00:04:36.399Z,1.70
2022-08-11T00:07:07.564Z,1.60
2022-08-11T00:09:39.582Z,1.70
2022-08-11T00:12:16.968Z,1.60
2022-08-11T00:14:47.097Z,1.50
2022-08-11T00:17:16.261Z,1.60
2022-08-11T00:20:12.507Z,1.80
2022-08-11T00:22:36.933Z,1.70
2022-08-11T00:27:40.864Z,1.80
2022-08-11T00:30:12.046Z,1.50
2022-08-11T00:32:44.262Z,1.60
2022-08-11T00:35:51.815Z,1.50
2022-08-11T00:38:07.001Z,1.80
2022-08-11T00:40:44.754Z,1.80
2022-08-11T00:43:21.552Z,1.90
2022-08-11T00:46:01.903Z,1.70
2022-08-11T00:48:40.272Z,1.70
2022-08-11T00:51:20.562Z,1.70
2022-08-11T00:56:58.231Z,1.70
2022-08-11T00:59:44.391Z,1.90
2022-08-11T01:02:22.704Z,1.90
2022-08-11T01:05:36.025Z,1.70
2022-08-11T01:08:22.212Z,1.90
2022-08-11T01:11:11.546Z,1.60
2022-08-11T01:13:58.049Z,1.90
2022-08-11T01:16:32.102Z,2.00
2022-08-11T01:20:47.968Z,1.90
2022-08-11T01:22:46.094Z,1.70
2022-08-11T01:25:56.891Z,2.00
2022-08-11T01:28:37.646Z,1.90
2022-08-11T01:31:34.857Z,1.80
2022-08-11T01:34:48.498Z,2.00
2022-08-11T01:37:52.671Z,2.10
2022-08-11T01:40:32.350Z,1.90
2022-08-11T01:43:37.049Z,2.00
2022-08-11T01:46:09.691Z,1.70
2022-08-11T01:49:00.301Z,1.70
2022-08-11T01:54:44.162Z,2.30
2022-08-11T01:57:26.837Z,2.00
2022-08-11T02:00:04.456Z,1.80
2022-08-11T02:02:48.168Z,1.80
2022-08-11T02:05:37.990Z,2.00
2022-08-11T02:08:33.368Z,2.70
2022-08-11T02:11:35.750Z,2.20
2022-08-11T02:14:13.076Z,1.90
2022-08-11T02:16:56.202Z,2.10
2022-08-11T02:20:10.643Z,2.10
2022-08-11T02:23:13.912Z,2.00
2022-08-11T02:26:24.510Z,2.10
2022-08-11T02:29:08.379Z,2.00
2022-08-11T02:32:24.953Z,2.00
2022-08-11T02:35:04.281Z,2.40
2022-08-11T02:37:32.033Z,2.00
2022-08-11T02:40:00.579Z,1.80
2022-08-11T02:42:46.618Z,2.10
2022-08-11T02:45:29.606Z,1.80
2022-08-11T02:48:43.941Z,2.10
2022-08-11T02:51:36.609Z,1.70
2022-08-11T02:54:11.150Z,2.00
2022-08-11T02:56:45.414Z,2.00
2022-08-11T02:59:50.145Z,1.80
2022-08-11T03:02:27.833Z,1.80
2022-08-11T03:05:07.333Z,1.90
2022-08-11T03:08:00.286Z,1.90
2022-08-11T03:10:43.577Z,1.90
2022-08-11T03:13:40.277Z,1.80
2022-08-11T03:16:47.024Z,2.10
2022-08-11T03:19:39.826Z,1.90
2022-08-11T03:22:10.745Z,2.40
2022-08-11T03:24:56.546Z,2.00
2022-08-11T03:27:37.875Z,2.00
2022-08-11T03:30:15.558Z,2.40
2022-08-11T03:33:16.655Z,1.80
2022-08-11T03:36:22.930Z,2.30
2022-08-11T03:39:03.255Z,2.40
2022-08-11T03:42:03.693Z,2.20
2022-08-11T03:45:07.511Z,1.90
2022-08-11T03:48:00.160Z,2.20
2022-08-11T03:50:43.277Z,2.10
2022-08-11T03:53:28.558Z,1.90
2022-08-11T03:56:38.550Z,2.10
2022-08-11T03:59:25.371Z,2.20
2022-08-11T04:02:02.136Z,2.10
2022-08-11T04:05:08.123Z,2.50
2022-08-11T04:08:01.163Z,2.00
2022-08-11T04:10:57.478Z,1.90
2022-08-11T04:13:42.435Z,2.00
2022-08-11T04:16:38.661Z,1.90
2022-08-11T04:19:13.384Z,2.10
2022-08-11T04:22:05.881Z,2.10
2022-08-11T04:25:12.681Z,2.00
2022-08-11T04:27:58.686Z,1.70
2022-08-11T04:30:56.713Z,2.50
2022-08-11T04:34:00.448Z,2.10
2022-08-11T04:37:17.608Z,2.10
2022-08-11T04:40:04.383Z,2.10
2022-08-11T04:42:53.619Z,1.90
2022-08-11T04:45:36.514Z,1.80
2022-08-11T04:48:48.935Z,2.60
2022-08-11T04:52:11.533Z,2.20
2022-08-11T04:55:31.557Z,2.10
2022-08-11T04:58:21.328Z,2.10
2022-08-11T05:01:39.029Z,2.40
2022-08-11T05:04:28.726Z,1.80
2022-08-11T05:07:21.648Z,2.30
2022-08-11T05:10:14.526Z,2.00
2022-08-11T05:12:48.900Z,2.10
2022-08-11T05:15:42.512Z,2.10
2022-08-11T05:18:38.522Z,2.20
2022-08-11T05:21:31.107Z,2.40
2022-08-11T05:24:45.665Z,2.30
2022-08-11T05:27:34.338Z,2.60
2022-08-11T05:30:28.559Z,2.80
2022-08-11T05:36:05.951Z,2.30
2022-08-11T05:38:55.375Z,2.40
2022-08-11T05:41:45.502Z,2.80
2022-08-11T05:44:38.009Z,2.30
2022-08-11T05:47:24.594Z,2.70
2022-08-11T05:50:13.566Z,2.40
2022-08-11T05:53:04.896Z,2.20
2022-08-11T05:56:03.877Z,2.60
2022-08-11T05:58:43.094Z,2.40
2022-08-11T06:01:14.723Z,2.40
2022-08-11T06:04:03.720Z,1.90
2022-08-11T06:06:32.377Z,2.40
2022-08-11T06:09:01.157Z,2.70
2022-08-11T06:11:44.136Z,2.10
2022-08-11T06:14:15.915Z,2.10
2022-08-11T06:16:49.734Z,2.00
2022-08-11T06:19:23.370Z,1.90
2022-08-11T06:21:53.231Z,2.50
2022-08-11T06:24:21.728Z,2.20
2022-08-11T06:27:11.701Z,2.00
2022-08-11T06:29:54.420Z,2.00
2022-08-11T06:32:27.280Z,2.10
2022-08-11T06:35:04.058Z,2.40
2022-08-11T06:37:58.762Z,2.50
2022-08-11T06:40:36.460Z,2.10
2022-08-11T06:43:18.695Z,2.40
2022-08-11T06:46:04.193Z,1.90
2022-08-11T06:48:33.803Z,2.20
2022-08-11T06:51:12.783Z,1.90
2022-08-11T06:54:03.291Z,2.10
2022-08-11T07:02:53.812Z,1.90
2022-08-11T07:05:45.300Z,2.20
2022-08-11T07:09:05.386Z,1.90
2022-08-11T07:12:19.529Z,2.10
2022-08-11T07:15:10.471Z,2.10
2022-08-11T07:17:49.434Z,1.90
2022-08-11T07:20:36.853Z,1.90
2022-08-11T07:23:27.873Z,2.10
2022-08-11T07:26:18.356Z,2.10
2022-08-11T07:29:00.863Z,1.90
2022-08-11T07:31:29.179Z,2.50
2022-08-11T07:34:19.542Z,1.70
2022-08-11T07:36:53.299Z,1.90
2022-08-11T07:39:27.035Z,2.20
2022-08-11T07:41:58.559Z,3.00
2022-08-11T07:44:35.101Z,1.90
2022-08-11T07:47:22.782Z,1.80
2022-08-11T07:50:12.763Z,1.90
2022-08-11T07:52:41.415Z,1.90
2022-08-11T07:55:14.851Z,1.60
2022-08-11T07:58:15.348Z,2.10
2022-08-11T08:01:21.339Z,1.70
2022-08-11T08:04:09.678Z,1.50
2022-08-11T08:06:57.629Z,2.00
2022-08-11T08:09:44.894Z,1.50
2022-08-11T08:12:33.793Z,2.10
2022-08-11T08:15:25.277Z,1.30
2022-08-11T08:18:20.742Z,1.80
2022-08-11T08:20:50.393Z,2.30
2022-08-11T08:23:33.919Z,1.80
2022-08-11T08:26:05.984Z,1.60
2022-08-11T08:28:46.579Z,1.80
2022-08-11T08:31:16.220Z,1.70
2022-08-11T08:33:45.082Z,1.80
2022-08-11T08:36:15.416Z,1.70
2022-08-11T08:38:54.439Z,1.90
2022-08-11T08:41:30.619Z,1.60
2022-08-11T08:44:27.616Z,2.00
2022-08-11T08:46:57.002Z,1.70
2022-08-11T08:49:40.444Z,1.80
2022-08-11T08:52:31.895Z,1.70
2022-08-11T08:55:06.144Z,1.70
2022-08-11T08:57:39.058Z,1.80
2022-08-11T09:00:12.969Z,1.70
2022-08-11T09:02:45.641Z,1.80
2022-08-11T09:05:18.350Z,1.60
2022-08-11T09:07:51.279Z,2.10
2022-08-11T09:10:20.587Z,1.70
2022-08-11T09:12:50.351Z,2.20
2022-08-11T09:15:20.146Z,1.90
2022-08-11T09:17:53.642Z,1.80
2022-08-11T09:20:26.683Z,2.00
2022-08-11T09:26:30.988Z,1.80
2022-08-11T09:29:01.913Z,2.20
2022-08-11T09:31:39.432Z,1.90
2022-08-11T09:34:10.676Z,2.20
2022-08-11T09:36:59.538Z,1.70
2022-08-11T09:39:50.860Z,1.90
2022-08-11T09:42:23.420Z,1.80
2022-08-11T09:44:53.912Z,2.10
2022-08-11T09:47:28.541Z,2.00
2022-08-11T09:50:00.811Z,1.80
2022-08-11T09:52:34.719Z,1.70
2022-08-11T09:55:06.540Z,1.70
2022-08-11T09:57:55.131Z,1.70
2022-08-11T10:00:29.075Z,1.80
2022-08-11T10:02:58.886Z,1.60
2022-08-11T10:05:46.002Z,1.50
2022-08-11T10:08:18.939Z,1.70
2022-08-11T10:10:49.077Z,1.80
2022-08-11T10:16:15.184Z,1.50
2022-08-11T10:18:53.225Z,1.80
2022-08-11T10:21:39.129Z,1.50
2022-08-11T10:24:26.740Z,2.00
2022-08-11T10:27:00.084Z,2.50
2022-08-11T10:29:52.115Z,1.90
2022-08-11T10:32:58.594Z,1.80
2022-08-11T10:35:31.759Z,1.80
2022-08-11T10:38:07.277Z,2.30
2022-08-11T10:40:39.922Z,1.80
2022-08-11T10:43:59.344Z,1.70
2022-08-11T10:46:29.919Z,1.60
2022-08-11T10:49:00.990Z,1.80
2022-08-11T10:51:53.688Z,1.80
2022-08-11T10:54:41.701Z,1.60
2022-08-11T10:57:29.392Z,1.80
2022-08-11T10:59:58.866Z,2.00
2022-08-11T11:05:01.611Z,1.60
2022-08-11T11:07:44.110Z,1.70
2022-08-11T11:10:12.724Z,1.50
2022-08-11T11:13:10.094Z,1.50
2022-08-11T11:16:00.052Z,1.60
2022-08-11T11:18:36.133Z,1.60
2022-08-11T11:21:10.795Z,1.40
2022-08-11T11:23:51.063Z,1.80
2022-08-11T11:26:56.350Z,1.60
2022-08-11T11:29:33.182Z,1.40
2022-08-11T11:32:16.070Z,1.40
2022-08-11T11:35:24.003Z,2.00
2022-08-11T11:38:04.235Z,1.70
2022-08-11T11:40:34.513Z,1.50
2022-08-11T11:45:31.814Z,1.70
2022-08-11T11:48:02.357Z,1.50
2022-08-11T11:50:35.095Z,1.60
2022-08-11T11:53:07.394Z,1.40
2022-08-11T11:55:36.386Z,1.20
2022-08-11T11:58:23.821Z,1.60
2022-08-11T12:01:11.881Z,1.30
2022-08-11T12:03:40.855Z,2.50
2022-08-11T12:06:14.913Z,1.70
2022-08-11T12:08:44.300Z,1.50
2022-08-11T12:11:32.277Z,1.20
2022-08-11T12:14:10.333Z,1.60
2022-08-11T12:16:44.989Z,1.70
2022-08-11T12:19:21.747Z,1.70
2022-08-11T12:22:08.693Z,1.40
2022-08-11T12:24:56.602Z,1.70
2022-08-11T12:27:27.377Z,1.60
2022-08-11T12:30:06.077Z,1.40
2022-08-11T12:32:36.601Z,1.50
2022-08-11T12:35:05.867Z,1.70
2022-08-11T12:40:43.207Z,1.90
2022-08-11T12:43:40.667Z,1.80
2022-08-11T12:46:18.352Z,1.40
2022-08-11T12:49:07.106Z,1.10
2022-08-11T12:52:11.694Z,1.20
2022-08-11T12:54:49.829Z,1.40
2022-08-11T12:57:50.770Z,1.80
2022-08-11T13:00:39.121Z,1.40
2022-08-11T13:03:27.781Z,1.60
2022-08-11T13:05:59.359Z,1.60
2022-08-11T13:08:29.733Z,1.20
2022-08-11T13:11:19.377Z,1.90
2022-08-11T13:13:55.127Z,1.30
2022-08-11T13:16:29.305Z,1.50
2022-08-11T13:19:01.442Z,1.60
2022-08-11T13:21:30.577Z,1.60
2022-08-11T13:24:01.388Z,1.60
2022-08-11T13:26:47.370Z,1.60
2022-08-11T13:29:24.379Z,1.40
2022-08-11T13:32:02.219Z,1.40
2022-08-11T13:34:31.613Z,1.40
2022-08-11T13:37:04.452Z,1.70
2022-08-11T13:39:34.747Z,1.20
2022-08-11T13:42:04.586Z,1.60
2022-08-11T13:44:36.822Z,1.70
2022-08-11T13:47:07.902Z,1.60
2022-08-11T13:49:39.970Z,1.50
2022-08-11T13:52:15.084Z,1.70
2022-08-11T13:54:45.069Z,1.60
2022-08-11T13:58:08.440Z,1.50
2022-08-11T14:00:20.891Z,1.20
2022-08-11T14:02:57.137Z,1.20
2022-08-11T14:05:48.000Z,1.20
2022-08-11T14:08:35.121Z,1.40
2022-08-11T14:12:21.727Z,1.30
2022-08-11T14:14:23.942Z,1.40
2022-08-11T14:16:55.206Z,1.50
2022-08-11T14:19:28.504Z,1.40
2022-08-11T14:22:10.220Z,2.30
2022-08-11T14:24:44.017Z,1.50
2022-08-11T14:28:29.696Z,2.10
2022-08-11T14:30:02.351Z,1.80
2022-08-11T14:32:30.260Z,1.80
2022-08-11T14:34:58.995Z,1.30
2022-08-11T14:37:28.427Z,1.50
2022-08-11T14:40:03.958Z,1.60
2022-08-11T14:42:51.593Z,1.60
2022-08-11T14:45:54.339Z,1.70
2022-08-11T14:48:27.304Z,1.30
2022-08-11T14:50:56.914Z,1.80
2022-08-11T14:53:25.038Z,1.90
2022-08-11T14:56:13.160Z,1.20
2022-08-11T14:58:42.940Z,1.40
2022-08-11T15:01:31.606Z,1.50
2022-08-11T15:04:34.525Z,1.70
2022-08-11T15:06:49.222Z,1.10
2022-08-11T15:09:18.626Z,1.30
2022-08-11T15:12:32.823Z,1.30
2022-08-11T15:15:22.428Z,1.40
2022-08-11T15:17:54.530Z,1.30
2022-08-11T15:20:42.580Z,1.30
2022-08-11T15:23:29.228Z,1.30
2022-08-11T15:26:03.768Z,1.50
2022-08-11T15:28:55.124Z,1.50
2022-08-11T15:31:27.779Z,1.80
2022-08-11T15:34:20.727Z,1.70
2022-08-11T15:37:09.597Z,1.70
2022-08-11T15:40:00.988Z,1.60
2022-08-11T15:42:48.992Z,1.50
2022-08-11T15:45:41.480Z,1.40
2022-08-11T15:48:13.489Z,1.50
2022-08-11T15:50:50.529Z,1.40
2022-08-11T15:53:27.241Z,1.30
2022-08-11T15:55:56.659Z,1.30
2022-08-11T15:58:47.403Z,1.70
2022-08-11T16:01:56.439Z,1.10
2022-08-11T16:04:27.544Z,1.30
2022-08-11T16:07:05.671Z,1.40
2022-08-11T16:09:51.633Z,1.20
2022-08-11T16:12:26.085Z,1.50
2022-08-11T16:15:20.179Z,1.60
2022-08-11T16:17:52.307Z,1.40
2022-08-11T16:20:23.966Z,1.60
2022-08-11T16:23:02.165Z,1.50
2022-08-11T16:27:06.987Z,1.40
2022-08-11T16:28:25.240Z,1.30
2022-08-11T16:30:55.237Z,1.40
2022-08-11T16:33:49.866Z,1.90
2022-08-11T16:36:34.798Z,1.20
2022-08-11T16:39:04.724Z,1.60
2022-08-11T16:44:40.417Z,1.50
2022-08-11T16:47:13.157Z,1.60
2022-08-11T16:49:52.543Z,1.60
2022-08-11T16:52:23.647Z,1.50
2022-08-11T16:54:52.830Z,1.50
2022-08-11T16:57:45.779Z,2.10
2022-08-11T17:00:17.221Z,1.70
2022-08-11T17:03:08.791Z,1.60
2022-08-11T17:06:01.692Z,1.70
2022-08-11T17:08:57.065Z,1.80
2022-08-11T17:11:47.977Z,1.60
2022-08-11T17:17:17.168Z,1.90
2022-08-11T17:20:43.531Z,1.90
2022-08-11T17:22:58.280Z,1.70
2022-08-11T17:25:28.399Z,2.00
2022-08-11T17:30:47.363Z,1.20
2022-08-11T17:33:34.394Z,2.10
2022-08-11T17:36:03.408Z,1.80
2022-08-11T17:38:34.106Z,2.20
2022-08-11T17:41:23.297Z,2.10
2022-08-11T17:44:12.487Z,2.30
2022-08-11T17:47:05.670Z,2.20
2022-08-11T17:49:37.912Z,2.80
2022-08-11T17:52:25.674Z,3.30
2022-08-11T17:55:13.666Z,3.20
2022-08-11T17:58:01.241Z,2.60
2022-08-11T18:00:32.188Z,2.10
2022-08-11T18:03:20.293Z,2.10
2022-08-11T18:05:51.964Z,2.20
2022-08-11T18:08:40.205Z,2.30
2022-08-11T18:12:10.259Z,2.30
2022-08-11T18:14:34.703Z,2.20
2022-08-11T18:17:21.504Z,2.30
2022-08-11T18:20:08.497Z,2.10
2022-08-11T18:22:59.395Z,1.80
2022-08-11T18:25:49.778Z,2.40
2022-08-11T18:28:42.759Z,1.90
2022-08-11T18:31:32.698Z,2.10
2022-08-11T18:37:29.604Z,1.90
2022-08-11T18:40:22.562Z,2.10
2022-08-11T18:43:11.846Z,2.20
2022-08-11T18:46:06.285Z,1.90
2022-08-11T18:48:56.274Z,1.90
2022-08-11T18:51:45.475Z,2.10
2022-08-11T18:54:33.133Z,2.10
2022-08-11T18:57:24.965Z,1.90
2022-08-11T19:00:13.360Z,1.60
2022-08-11T19:03:01.780Z,2.10
2022-08-11T19:06:35.497Z,2.50
2022-08-11T19:09:05.134Z,2.20
2022-08-11T19:11:53.181Z,2.10
2022-08-11T19:14:40.512Z,2.00
2022-08-11T19:17:45.045Z,2.40
2022-08-11T19:20:36.603Z,2.00
2022-08-11T19:23:27.262Z,2.00
2022-08-11T19:26:16.945Z,2.20
2022-08-11T19:29:06.728Z,2.10
2022-08-11T19:31:54.783Z,2.20
2022-08-11T19:34:43.432Z,1.90
2022-08-11T19:37:31.760Z,2.40
2022-08-11T19:40:26.179Z,2.30
2022-08-11T19:43:23.309Z,2.10
2022-08-11T19:49:09.649Z,2.10
2022-08-11T19:51:57.775Z,2.00
2022-08-11T19:54:51.150Z,2.20
2022-08-11T19:57:40.171Z,2.00
2022-08-11T20:00:39.126Z,2.20
2022-08-11T20:03:28.272Z,2.20
2022-08-11T20:06:20.055Z,2.20
2022-08-11T20:09:08.890Z,2.20
2022-08-11T20:11:59.861Z,2.30
2022-08-11T20:14:50.557Z,2.40
2022-08-11T20:17:39.568Z,2.50
2022-08-11T20:20:27.715Z,2.20
2022-08-11T20:23:19.232Z,2.40
2022-08-11T20:26:29.623Z,2.40
2022-08-11T20:29:17.024Z,2.10
2022-08-11T20:32:06.488Z,2.30
2022-08-11T20:34:59.824Z,2.20
2022-08-11T20:37:51.034Z,2.50
2022-08-11T20:40:45.991Z,2.60
2022-08-11T20:44:05.958Z,2.10
2022-08-11T20:46:45.660Z,2.50
2022-08-11T20:49:45.218Z,2.10
2022-08-11T20:52:40.237Z,2.30
2022-08-11T20:55:52.315Z,2.20
2022-08-11T20:59:10.943Z,2.20
2022-08-11T21:01:45.691Z,2.50
2022-08-11T21:04:33.367Z,2.50
2022-08-11T21:07:39.349Z,2.20
2022-08-11T21:10:29.105Z,2.20
2022-08-11T21:13:25.893Z,2.00
2022-08-11T21:16:25.619Z,2.30
2022-08-11T21:19:55.177Z,2.30
2022-08-11T21:22:36.976Z,2.20
2022-08-11T21:25:27.335Z,2.60
2022-08-11T21:28:21.915Z,2.20
2022-08-11T21:31:09.601Z,2.30
2022-08-11T21:33:58.536Z,2.60
2022-08-11T21:36:46.310Z,3.10
2022-08-11T21:39:37.892Z,2.50
2022-08-11T21:42:25.446Z,2.40
2022-08-11T21:45:14.082Z,2.30
2022-08-11T21:48:02.137Z,2.50
2022-08-11T21:50:48.675Z,2.30
2022-08-11T21:53:36.302Z,2.20
2022-08-11T21:56:26.183Z,2.60
2022-08-11T21:59:16.006Z,2.30
2022-08-11T22:02:03.619Z,2.80
2022-08-11T22:04:52.830Z,2.60
2022-08-11T22:07:41.027Z,2.20
2022-08-11T22:10:41.811Z,2.50
2022-08-11T22:13:32.520Z,2.00
2022-08-11T22:16:19.627Z,2.20
2022-08-11T22:19:07.487Z,2.10
2022-08-11T22:22:03.294Z,2.10
2022-08-11T22:24:52.340Z,2.00
2022-08-11T22:27:40.495Z,2.20
2022-08-11T22:30:29.356Z,2.20
2022-08-11T22:33:24.484Z,2.30
2022-08-11T22:36:14.386Z,2.30
2022-08-11T22:39:03.817Z,2.20
2022-08-11T22:41:50.278Z,1.90
2022-08-11T22:44:37.409Z,2.30
2022-08-11T22:47:27.516Z,2.00
2022-08-11T22:50:27.509Z,2.00
2022-08-11T22:53:16.144Z,2.20
2022-08-11T22:56:04.828Z,2.40
2022-08-11T22:58:52.195Z,2.40
2022-08-11T23:01:39.763Z,2.30
2022-08-11T23:04:43.987Z,2.10
2022-08-11T23:07:50.368Z,2.80
2022-08-11T23:10:39.592Z,2.10
2022-08-11T23:13:28.107Z,2.20
2022-08-11T23:16:16.576Z,2.40
2022-08-11T23:19:04.976Z,2.30
2022-08-11T23:21:53.258Z,2.40
2022-08-11T23:24:41.159Z,2.30
2022-08-11T23:27:28.668Z,2.20
2022-08-11T23:30:18.781Z,2.00
2022-08-11T23:33:10.820Z,2.30
2022-08-11T23:36:05.339Z,2.40
2022-08-11T23:38:52.722Z,2.40
2022-08-11T23:41:39.724Z,2.60
2022-08-11T23:44:27.567Z,2.10
2022-08-11T23:47:17.754Z,2.10
2022-08-11T23:52:54.836Z,2.50
2022-08-11T23:55:42.014Z,2.30
2022-08-11T23:58:30.329Z,2.30
